sensor_id;sensor_type;location;lat;lon;timestamp;temperature;humidity
38788;DHT22;24536;45.488;12.238;2023-08-24T00:00:41;31.30;68.70
38788;DHT22;24536;45.488;12.238;2023-08-24T00:03:08;31.30;68.80
38788;DHT22;24536;45.488;12.238;2023-08-24T00:05:37;31.20;68.70
38788;DHT22;24536;45.488;12.238;2023-08-24T00:08:04;31.20;68.50
38788;DHT22;24536;45.488;12.238;2023-08-24T00:10:30;31.20;68.30
38788;DHT22;24536;45.488;12.238;2023-08-24T00:12:56;31.20;68.20
38788;DHT22;24536;45.488;12.238;2023-08-24T00:15:22;31.20;68.20
38788;DHT22;24536;45.488;12.238;2023-08-24T00:17:48;31.10;68.20
38788;DHT22;24536;45.488;12.238;2023-08-24T00:20:13;31.10;68.20
38788;DHT22;24536;45.488;12.238;2023-08-24T00:22:39;31.10;68.20
38788;DHT22;24536;45.488;12.238;2023-08-24T00:25:08;31.10;68.10
38788;DHT22;24536;45.488;12.238;2023-08-24T00:27:35;31.10;68.00
38788;DHT22;24536;45.488;12.238;2023-08-24T00:30:03;31.00;67.90
38788;DHT22;24536;45.488;12.238;2023-08-24T00:32:30;31.00;68.10
38788;DHT22;24536;45.488;12.238;2023-08-24T00:35:00;31.00;68.10
38788;DHT22;24536;45.488;12.238;2023-08-24T00:37:25;31.00;68.10
38788;DHT22;24536;45.488;12.238;2023-08-24T00:39:51;31.00;68.10
38788;DHT22;24536;45.488;12.238;2023-08-24T00:42:26;30.90;68.00
38788;DHT22;24536;45.488;12.238;2023-08-24T00:44:52;30.90;68.20
38788;DHT22;24536;45.488;12.238;2023-08-24T00:47:27;30.90;68.60
38788;DHT22;24536;45.488;12.238;2023-08-24T00:49:53;30.90;68.40
38788;DHT22;24536;45.488;12.238;2023-08-24T00:52:19;30.80;68.50
38788;DHT22;24536;45.488;12.238;2023-08-24T00:54:44;30.90;68.60
38788;DHT22;24536;45.488;12.238;2023-08-24T00:57:10;30.90;68.60
38788;DHT22;24536;45.488;12.238;2023-08-24T00:59:36;30.90;68.70
38788;DHT22;24536;45.488;12.238;2023-08-24T01:02:02;30.90;68.60
38788;DHT22;24536;45.488;12.238;2023-08-24T01:04:28;30.90;68.50
38788;DHT22;24536;45.488;12.238;2023-08-24T01:06:54;30.90;68.70
38788;DHT22;24536;45.488;12.238;2023-08-24T01:09:20;30.80;68.80
38788;DHT22;24536;45.488;12.238;2023-08-24T01:14:39;30.80;69.00
38788;DHT22;24536;45.488;12.238;2023-08-24T01:17:15;30.80;68.90
38788;DHT22;24536;45.488;12.238;2023-08-24T01:19:45;30.70;68.90
38788;DHT22;24536;45.488;12.238;2023-08-24T01:27:29;30.70;69.20
38788;DHT22;24536;45.488;12.238;2023-08-24T01:29:57;30.60;69.30
38788;DHT22;24536;45.488;12.238;2023-08-24T01:32:24;30.50;69.30
38788;DHT22;24536;45.488;12.238;2023-08-24T01:34:50;30.40;69.60
38788;DHT22;24536;45.488;12.238;2023-08-24T01:37:16;30.40;69.70
38788;DHT22;24536;45.488;12.238;2023-08-24T01:39:49;30.30;70.00
38788;DHT22;24536;45.488;12.238;2023-08-24T01:42:20;30.30;70.00
38788;DHT22;24536;45.488;12.238;2023-08-24T01:44:53;30.20;70.20
38788;DHT22;24536;45.488;12.238;2023-08-24T01:47:20;30.10;70.40
38788;DHT22;24536;45.488;12.238;2023-08-24T01:49:47;30.10;71.00
38788;DHT22;24536;45.488;12.238;2023-08-24T01:52:13;30.10;70.70
38788;DHT22;24536;45.488;12.238;2023-08-24T01:54:40;30.10;70.60
38788;DHT22;24536;45.488;12.238;2023-08-24T01:57:06;30.10;70.70
38788;DHT22;24536;45.488;12.238;2023-08-24T01:59:32;30.10;70.70
38788;DHT22;24536;45.488;12.238;2023-08-24T02:01:57;30.10;70.80
38788;DHT22;24536;45.488;12.238;2023-08-24T02:04:23;30.10;70.90
38788;DHT22;24536;45.488;12.238;2023-08-24T02:06:49;30.10;70.90
38788;DHT22;24536;45.488;12.238;2023-08-24T02:09:14;30.10;71.00
38788;DHT22;24536;45.488;12.238;2023-08-24T02:11:40;30.20;70.90
38788;DHT22;24536;45.488;12.238;2023-08-24T02:14:06;30.20;70.80
38788;DHT22;24536;45.488;12.238;2023-08-24T02:16:31;30.20;70.90
38788;DHT22;24536;45.488;12.238;2023-08-24T02:18:57;30.10;71.00
38788;DHT22;24536;45.488;12.238;2023-08-24T02:21:23;30.10;71.20
38788;DHT22;24536;45.488;12.238;2023-08-24T02:23:49;30.00;71.30
38788;DHT22;24536;45.488;12.238;2023-08-24T02:26:15;30.00;71.80
38788;DHT22;24536;45.488;12.238;2023-08-24T02:28:40;30.00;71.90
38788;DHT22;24536;45.488;12.238;2023-08-24T02:31:06;29.90;72.10
38788;DHT22;24536;45.488;12.238;2023-08-24T02:33:32;29.90;71.90
38788;DHT22;24536;45.488;12.238;2023-08-24T02:35:59;29.80;72.00
38788;DHT22;24536;45.488;12.238;2023-08-24T02:38:25;29.80;72.40
38788;DHT22;24536;45.488;12.238;2023-08-24T02:41:00;29.80;72.60
38788;DHT22;24536;45.488;12.238;2023-08-24T02:43:27;29.80;72.80
38788;DHT22;24536;45.488;12.238;2023-08-24T02:45:53;29.70;72.80
38788;DHT22;24536;45.488;12.238;2023-08-24T02:48:19;29.60;73.40
38788;DHT22;24536;45.488;12.238;2023-08-24T02:50:47;29.50;73.20
38788;DHT22;24536;45.488;12.238;2023-08-24T02:53:13;29.50;73.30
38788;DHT22;24536;45.488;12.238;2023-08-24T02:55:39;29.50;73.40
38788;DHT22;24536;45.488;12.238;2023-08-24T02:58:05;29.50;74.20
38788;DHT22;24536;45.488;12.238;2023-08-24T03:00:30;29.50;73.80
38788;DHT22;24536;45.488;12.238;2023-08-24T03:02:56;29.50;73.80
38788;DHT22;24536;45.488;12.238;2023-08-24T03:08:08;29.50;74.30
38788;DHT22;24536;45.488;12.238;2023-08-24T03:10:37;29.50;74.00
38788;DHT22;24536;45.488;12.238;2023-08-24T03:13:03;29.40;74.10
38788;DHT22;24536;45.488;12.238;2023-08-24T03:15:29;29.50;74.40
38788;DHT22;24536;45.488;12.238;2023-08-24T03:17:56;29.50;74.30
38788;DHT22;24536;45.488;12.238;2023-08-24T03:20:22;29.50;74.50
38788;DHT22;24536;45.488;12.238;2023-08-24T03:22:49;29.40;74.40
38788;DHT22;24536;45.488;12.238;2023-08-24T03:25:15;29.40;74.50
38788;DHT22;24536;45.488;12.238;2023-08-24T03:27:40;29.40;74.70
38788;DHT22;24536;45.488;12.238;2023-08-24T03:30:07;29.30;74.70
38788;DHT22;24536;45.488;12.238;2023-08-24T03:32:33;29.30;74.60
38788;DHT22;24536;45.488;12.238;2023-08-24T03:35:02;29.30;75.00
38788;DHT22;24536;45.488;12.238;2023-08-24T03:37:29;29.40;75.00
38788;DHT22;24536;45.488;12.238;2023-08-24T03:39:54;29.40;75.10
38788;DHT22;24536;45.488;12.238;2023-08-24T03:42:20;29.40;75.20
38788;DHT22;24536;45.488;12.238;2023-08-24T03:44:46;29.50;75.30
38788;DHT22;24536;45.488;12.238;2023-08-24T03:50:11;29.50;75.00
38788;DHT22;24536;45.488;12.238;2023-08-24T03:52:37;29.50;74.80
38788;DHT22;24536;45.488;12.238;2023-08-24T03:55:05;29.50;74.70
38788;DHT22;24536;45.488;12.238;2023-08-24T03:57:31;29.50;74.60
38788;DHT22;24536;45.488;12.238;2023-08-24T03:59:57;29.50;74.60
38788;DHT22;24536;45.488;12.238;2023-08-24T04:02:23;29.50;74.70
38788;DHT22;24536;45.488;12.238;2023-08-24T04:04:50;29.50;74.50
38788;DHT22;24536;45.488;12.238;2023-08-24T04:07:16;29.50;74.30
38788;DHT22;24536;45.488;12.238;2023-08-24T04:09:41;29.50;74.20
38788;DHT22;24536;45.488;12.238;2023-08-24T04:12:07;29.50;74.00
38788;DHT22;24536;45.488;12.238;2023-08-24T04:14:33;29.40;73.90
38788;DHT22;24536;45.488;12.238;2023-08-24T04:16:59;29.40;73.90
38788;DHT22;24536;45.488;12.238;2023-08-24T04:19:25;29.40;73.90
38788;DHT22;24536;45.488;12.238;2023-08-24T04:21:51;29.40;74.10
38788;DHT22;24536;45.488;12.238;2023-08-24T04:24:17;29.30;74.20
38788;DHT22;24536;45.488;12.238;2023-08-24T04:26:42;29.30;74.30
38788;DHT22;24536;45.488;12.238;2023-08-24T04:29:08;29.20;74.30
38788;DHT22;24536;45.488;12.238;2023-08-24T04:31:34;29.20;74.50
38788;DHT22;24536;45.488;12.238;2023-08-24T04:34:03;29.20;74.60
38788;DHT22;24536;45.488;12.238;2023-08-24T04:36:29;29.10;74.70
38788;DHT22;24536;45.488;12.238;2023-08-24T04:39:11;29.10;75.20
38788;DHT22;24536;45.488;12.238;2023-08-24T04:41:37;29.10;75.70
38788;DHT22;24536;45.488;12.238;2023-08-24T04:44:02;29.00;75.80
38788;DHT22;24536;45.488;12.238;2023-08-24T04:46:28;29.00;75.80
38788;DHT22;24536;45.488;12.238;2023-08-24T04:48:54;29.00;76.40
38788;DHT22;24536;45.488;12.238;2023-08-24T04:51:19;28.90;76.20
38788;DHT22;24536;45.488;12.238;2023-08-24T04:53:45;28.90;76.20
38788;DHT22;24536;45.488;12.238;2023-08-24T04:56:11;28.90;76.50
38788;DHT22;24536;45.488;12.238;2023-08-24T04:58:36;28.90;76.40
38788;DHT22;24536;45.488;12.238;2023-08-24T05:01:02;28.80;76.30
38788;DHT22;24536;45.488;12.238;2023-08-24T05:03:28;28.80;76.20
38788;DHT22;24536;45.488;12.238;2023-08-24T05:05:53;28.80;76.20
38788;DHT22;24536;45.488;12.238;2023-08-24T05:08:19;28.80;76.00
38788;DHT22;24536;45.488;12.238;2023-08-24T05:10:45;28.80;75.80
38788;DHT22;24536;45.488;12.238;2023-08-24T05:13:11;28.80;75.70
38788;DHT22;24536;45.488;12.238;2023-08-24T05:15:36;28.90;75.80
38788;DHT22;24536;45.488;12.238;2023-08-24T05:18:02;28.90;75.70
38788;DHT22;24536;45.488;12.238;2023-08-24T05:20:28;28.90;75.50
38788;DHT22;24536;45.488;12.238;2023-08-24T05:22:54;28.90;75.10
38788;DHT22;24536;45.488;12.238;2023-08-24T05:25:21;28.90;75.00
38788;DHT22;24536;45.488;12.238;2023-08-24T05:27:47;28.90;75.00
38788;DHT22;24536;45.488;12.238;2023-08-24T05:30:12;29.00;75.10
38788;DHT22;24536;45.488;12.238;2023-08-24T05:32:38;29.00;74.70
38788;DHT22;24536;45.488;12.238;2023-08-24T05:35:05;29.10;74.80
38788;DHT22;24536;45.488;12.238;2023-08-24T05:37:31;29.00;74.50
38788;DHT22;24536;45.488;12.238;2023-08-24T05:39:57;29.10;74.50
38788;DHT22;24536;45.488;12.238;2023-08-24T05:42:22;29.10;74.40
38788;DHT22;24536;45.488;12.238;2023-08-24T05:44:49;29.10;74.30
38788;DHT22;24536;45.488;12.238;2023-08-24T05:47:15;29.00;74.20
38788;DHT22;24536;45.488;12.238;2023-08-24T05:49:41;29.10;74.20
38788;DHT22;24536;45.488;12.238;2023-08-24T05:52:07;29.10;74.30
38788;DHT22;24536;45.488;12.238;2023-08-24T05:54:32;29.10;74.20
38788;DHT22;24536;45.488;12.238;2023-08-24T05:56:58;29.20;74.30
38788;DHT22;24536;45.488;12.238;2023-08-24T05:59:28;29.30;74.20
38788;DHT22;24536;45.488;12.238;2023-08-24T06:01:54;29.40;74.40
38788;DHT22;24536;45.488;12.238;2023-08-24T06:04:19;29.40;74.20
38788;DHT22;24536;45.488;12.238;2023-08-24T06:06:45;29.40;73.80
38788;DHT22;24536;45.488;12.238;2023-08-24T06:09:11;29.40;73.50
38788;DHT22;24536;45.488;12.238;2023-08-24T06:11:37;29.40;73.50
38788;DHT22;24536;45.488;12.238;2023-08-24T06:14:03;29.40;73.60
38788;DHT22;24536;45.488;12.238;2023-08-24T06:16:29;29.50;73.80
38788;DHT22;24536;45.488;12.238;2023-08-24T06:18:55;29.50;73.60
38788;DHT22;24536;45.488;12.238;2023-08-24T06:21:20;29.50;73.20
38788;DHT22;24536;45.488;12.238;2023-08-24T06:23:46;29.50;73.90
38788;DHT22;24536;45.488;12.238;2023-08-24T06:26:13;29.50;73.30
38788;DHT22;24536;45.488;12.238;2023-08-24T06:28:39;29.50;73.50
38788;DHT22;24536;45.488;12.238;2023-08-24T06:31:05;29.50;73.30
38788;DHT22;24536;45.488;12.238;2023-08-24T06:33:36;29.50;73.40
38788;DHT22;24536;45.488;12.238;2023-08-24T06:36:03;29.50;73.40
38788;DHT22;24536;45.488;12.238;2023-08-24T06:38:30;29.50;73.40
38788;DHT22;24536;45.488;12.238;2023-08-24T06:40:57;29.60;73.50
38788;DHT22;24536;45.488;12.238;2023-08-24T06:43:23;29.70;74.00
38788;DHT22;24536;45.488;12.238;2023-08-24T06:45:49;29.70;73.40
38788;DHT22;24536;45.488;12.238;2023-08-24T06:48:15;29.70;73.50
38788;DHT22;24536;45.488;12.238;2023-08-24T06:50:40;29.70;73.50
38788;DHT22;24536;45.488;12.238;2023-08-24T06:53:06;29.70;73.50
38788;DHT22;24536;45.488;12.238;2023-08-24T06:55:33;29.70;73.50
38788;DHT22;24536;45.488;12.238;2023-08-24T06:57:59;29.70;72.80
38788;DHT22;24536;45.488;12.238;2023-08-24T07:00:24;29.70;72.60
38788;DHT22;24536;45.488;12.238;2023-08-24T07:02:51;29.80;72.50
38788;DHT22;24536;45.488;12.238;2023-08-24T07:05:17;29.80;72.40
38788;DHT22;24536;45.488;12.238;2023-08-24T07:07:46;29.80;72.30
38788;DHT22;24536;45.488;12.238;2023-08-24T07:10:13;29.80;72.50
38788;DHT22;24536;45.488;12.238;2023-08-24T07:12:38;29.90;72.50
38788;DHT22;24536;45.488;12.238;2023-08-24T07:15:08;30.00;72.90
38788;DHT22;24536;45.488;12.238;2023-08-24T07:17:33;30.10;73.00
38788;DHT22;24536;45.488;12.238;2023-08-24T07:19:59;30.20;72.80
38788;DHT22;24536;45.488;12.238;2023-08-24T07:22:25;30.30;72.60
38788;DHT22;24536;45.488;12.238;2023-08-24T07:24:54;30.40;72.40
38788;DHT22;24536;45.488;12.238;2023-08-24T07:27:20;30.50;72.00
38788;DHT22;24536;45.488;12.238;2023-08-24T07:29:46;30.60;71.40
38788;DHT22;24536;45.488;12.238;2023-08-24T07:32:12;30.60;69.80
38788;DHT22;24536;45.488;12.238;2023-08-24T07:34:38;30.60;70.30
38788;DHT22;24536;45.488;12.238;2023-08-24T07:37:04;30.70;69.90
38788;DHT22;24536;45.488;12.238;2023-08-24T07:39:29;30.70;69.70
38788;DHT22;24536;45.488;12.238;2023-08-24T07:41:55;30.80;70.00
38788;DHT22;24536;45.488;12.238;2023-08-24T07:44:21;30.90;70.00
38788;DHT22;24536;45.488;12.238;2023-08-24T07:46:50;30.90;70.40
38788;DHT22;24536;45.488;12.238;2023-08-24T07:49:15;31.10;70.70
38788;DHT22;24536;45.488;12.238;2023-08-24T07:51:41;31.10;70.60
38788;DHT22;24536;45.488;12.238;2023-08-24T07:54:08;31.30;70.60
38788;DHT22;24536;45.488;12.238;2023-08-24T07:56:34;31.40;69.90
38788;DHT22;24536;45.488;12.238;2023-08-24T07:59:00;31.40;70.00
38788;DHT22;24536;45.488;12.238;2023-08-24T08:01:26;31.50;68.10
38788;DHT22;24536;45.488;12.238;2023-08-24T08:03:52;31.50;68.60
38788;DHT22;24536;45.488;12.238;2023-08-24T08:06:17;31.50;68.40
38788;DHT22;24536;45.488;12.238;2023-08-24T08:08:43;31.60;67.50
38788;DHT22;24536;45.488;12.238;2023-08-24T08:11:11;31.70;67.70
38788;DHT22;24536;45.488;12.238;2023-08-24T08:13:36;31.70;68.00
38788;DHT22;24536;45.488;12.238;2023-08-24T08:16:03;31.80;68.50
38788;DHT22;24536;45.488;12.238;2023-08-24T08:18:31;31.90;68.90
38788;DHT22;24536;45.488;12.238;2023-08-24T08:20:56;32.00;68.40
38788;DHT22;24536;45.488;12.238;2023-08-24T08:23:22;32.10;67.60
38788;DHT22;24536;45.488;12.238;2023-08-24T08:25:48;32.10;63.70
38788;DHT22;24536;45.488;12.238;2023-08-24T08:28:13;32.10;65.70
38788;DHT22;24536;45.488;12.238;2023-08-24T08:30:39;32.20;65.00
38788;DHT22;24536;45.488;12.238;2023-08-24T08:33:05;32.20;64.80
38788;DHT22;24536;45.488;12.238;2023-08-24T08:35:30;32.30;64.70
38788;DHT22;24536;45.488;12.238;2023-08-24T08:37:56;32.30;65.30
38788;DHT22;24536;45.488;12.238;2023-08-24T08:40:25;32.40;65.70
38788;DHT22;24536;45.488;12.238;2023-08-24T08:42:58;32.50;65.90
38788;DHT22;24536;45.488;12.238;2023-08-24T08:45:28;32.60;64.30
38788;DHT22;24536;45.488;12.238;2023-08-24T08:48:00;32.60;65.20
38788;DHT22;24536;45.488;12.238;2023-08-24T08:50:27;32.70;65.30
38788;DHT22;24536;45.488;12.238;2023-08-24T08:52:52;32.80;64.40
38788;DHT22;24536;45.488;12.238;2023-08-24T08:55:19;32.90;64.60
38788;DHT22;24536;45.488;12.238;2023-08-24T08:57:48;32.90;65.20
38788;DHT22;24536;45.488;12.238;2023-08-24T09:00:15;33.10;65.10
38788;DHT22;24536;45.488;12.238;2023-08-24T09:02:43;33.10;63.90
38788;DHT22;24536;45.488;12.238;2023-08-24T09:05:12;33.30;63.60
38788;DHT22;24536;45.488;12.238;2023-08-24T09:07:41;33.30;64.10
38788;DHT22;24536;45.488;12.238;2023-08-24T09:10:08;33.40;63.30
38788;DHT22;24536;45.488;12.238;2023-08-24T09:12:34;33.50;64.10
38788;DHT22;24536;45.488;12.238;2023-08-24T09:15:03;33.60;63.00
38788;DHT22;24536;45.488;12.238;2023-08-24T09:17:29;33.70;63.90
38788;DHT22;24536;45.488;12.238;2023-08-24T09:19:58;33.80;63.70
38788;DHT22;24536;45.488;12.238;2023-08-24T09:22:24;33.90;64.10
38788;DHT22;24536;45.488;12.238;2023-08-24T09:24:49;34.00;63.20
38788;DHT22;24536;45.488;12.238;2023-08-24T09:27:21;34.10;63.50
38788;DHT22;24536;45.488;12.238;2023-08-24T09:32:21;34.00;60.20
38788;DHT22;24536;45.488;12.238;2023-08-24T09:34:48;34.00;61.10
38788;DHT22;24536;45.488;12.238;2023-08-24T09:37:17;34.00;61.50
38788;DHT22;24536;45.488;12.238;2023-08-24T09:39:43;34.00;61.20
38788;DHT22;24536;45.488;12.238;2023-08-24T09:42:09;34.10;60.30
38788;DHT22;24536;45.488;12.238;2023-08-24T09:44:35;34.10;60.80
38788;DHT22;24536;45.488;12.238;2023-08-24T09:47:01;34.20;61.80
38788;DHT22;24536;45.488;12.238;2023-08-24T09:49:28;34.30;61.80
38788;DHT22;24536;45.488;12.238;2023-08-24T09:51:57;34.50;62.50
38788;DHT22;24536;45.488;12.238;2023-08-24T09:54:26;34.70;62.60
38788;DHT22;24536;45.488;12.238;2023-08-24T09:56:54;34.90;62.70
38788;DHT22;24536;45.488;12.238;2023-08-24T09:59:22;35.00;62.40
38788;DHT22;24536;45.488;12.238;2023-08-24T10:01:51;35.20;62.40
38788;DHT22;24536;45.488;12.238;2023-08-24T10:04:28;35.30;62.10
38788;DHT22;24536;45.488;12.238;2023-08-24T10:07:06;35.50;61.70
38788;DHT22;24536;45.488;12.238;2023-08-24T10:12:26;35.70;61.00
38788;DHT22;24536;45.488;12.238;2023-08-24T10:15:00;35.90;61.30
38788;DHT22;24536;45.488;12.238;2023-08-24T10:17:31;36.00;61.20
38788;DHT22;24536;45.488;12.238;2023-08-24T10:19:58;36.20;60.80
38788;DHT22;24536;45.488;12.238;2023-08-24T10:22:31;36.20;61.00
38788;DHT22;24536;45.488;12.238;2023-08-24T10:24:57;36.30;60.40
38788;DHT22;24536;45.488;12.238;2023-08-24T10:27:23;36.40;60.40
38788;DHT22;24536;45.488;12.238;2023-08-24T10:29:52;36.50;60.50
38788;DHT22;24536;45.488;12.238;2023-08-24T10:32:19;36.60;60.40
38788;DHT22;24536;45.488;12.238;2023-08-24T10:34:46;36.70;60.00
38788;DHT22;24536;45.488;12.238;2023-08-24T10:37:12;36.80;60.20
38788;DHT22;24536;45.488;12.238;2023-08-24T10:39:44;36.80;59.40
38788;DHT22;24536;45.488;12.238;2023-08-24T10:42:14;36.90;59.20
38788;DHT22;24536;45.488;12.238;2023-08-24T10:44:43;37.00;58.90
38788;DHT22;24536;45.488;12.238;2023-08-24T10:47:22;37.10;58.80
38788;DHT22;24536;45.488;12.238;2023-08-24T10:52:35;37.30;58.30
38788;DHT22;24536;45.488;12.238;2023-08-24T10:55:02;37.50;58.20
38788;DHT22;24536;45.488;12.238;2023-08-24T10:57:35;37.60;57.70
38788;DHT22;24536;45.488;12.238;2023-08-24T11:00:07;37.70;57.00
38788;DHT22;24536;45.488;12.238;2023-08-24T11:02:48;37.80;57.40
38788;DHT22;24536;45.488;12.238;2023-08-24T11:05:20;37.90;57.10
38788;DHT22;24536;45.488;12.238;2023-08-24T11:07:55;38.10;57.50
38788;DHT22;24536;45.488;12.238;2023-08-24T11:10:25;38.20;56.80
38788;DHT22;24536;45.488;12.238;2023-08-24T11:13:04;38.40;56.50
38788;DHT22;24536;45.488;12.238;2023-08-24T11:15:31;38.50;56.20
38788;DHT22;24536;45.488;12.238;2023-08-24T11:18:12;38.70;56.00
38788;DHT22;24536;45.488;12.238;2023-08-24T11:20:44;38.90;55.40
38788;DHT22;24536;45.488;12.238;2023-08-24T11:23:10;39.00;55.90
38788;DHT22;24536;45.488;12.238;2023-08-24T11:25:36;39.20;55.30
38788;DHT22;24536;45.488;12.238;2023-08-24T11:28:03;39.30;55.10
38788;DHT22;24536;45.488;12.238;2023-08-24T11:30:31;39.40;54.90
38788;DHT22;24536;45.488;12.238;2023-08-24T11:32:56;39.60;54.20
38788;DHT22;24536;45.488;12.238;2023-08-24T11:35:22;39.80;54.30
38788;DHT22;24536;45.488;12.238;2023-08-24T11:37:55;39.90;54.00
38788;DHT22;24536;45.488;12.238;2023-08-24T11:40:22;40.10;53.90
38788;DHT22;24536;45.488;12.238;2023-08-24T11:42:58;40.40;53.70
38788;DHT22;24536;45.488;12.238;2023-08-24T11:45:24;40.60;53.30
38788;DHT22;24536;45.488;12.238;2023-08-24T11:47:54;40.80;53.00
38788;DHT22;24536;45.488;12.238;2023-08-24T11:50:20;40.90;52.40
38788;DHT22;24536;45.488;12.238;2023-08-24T11:52:46;41.00;52.20
38788;DHT22;24536;45.488;12.238;2023-08-24T11:55:11;41.20;51.00
38788;DHT22;24536;45.488;12.238;2023-08-24T11:57:38;41.30;49.90
38788;DHT22;24536;45.488;12.238;2023-08-24T12:00:04;41.40;51.20
38788;DHT22;24536;45.488;12.238;2023-08-24T12:02:32;41.50;51.10
38788;DHT22;24536;45.488;12.238;2023-08-24T12:04:58;41.60;50.80
38788;DHT22;24536;45.488;12.238;2023-08-24T12:07:25;41.80;50.80
38788;DHT22;24536;45.488;12.238;2023-08-24T12:09:52;41.90;50.80
38788;DHT22;24536;45.488;12.238;2023-08-24T12:12:20;41.90;50.60
38788;DHT22;24536;45.488;12.238;2023-08-24T12:14:49;42.10;50.40
38788;DHT22;24536;45.488;12.238;2023-08-24T12:17:16;42.20;50.10
38788;DHT22;24536;45.488;12.238;2023-08-24T12:19:45;42.40;50.30
38788;DHT22;24536;45.488;12.238;2023-08-24T12:22:21;42.50;50.00
38788;DHT22;24536;45.488;12.238;2023-08-24T12:24:47;42.60;48.50
38788;DHT22;24536;45.488;12.238;2023-08-24T12:29:48;42.40;48.80
38788;DHT22;24536;45.488;12.238;2023-08-24T12:32:14;42.30;49.00
38788;DHT22;24536;45.488;12.238;2023-08-24T12:34:46;42.30;49.30
38788;DHT22;24536;45.488;12.238;2023-08-24T12:37:12;42.30;49.60
38788;DHT22;24536;45.488;12.238;2023-08-24T12:39:39;42.30;49.10
38788;DHT22;24536;45.488;12.238;2023-08-24T12:42:05;42.20;49.60
38788;DHT22;24536;45.488;12.238;2023-08-24T12:44:32;42.20;49.20
38788;DHT22;24536;45.488;12.238;2023-08-24T12:46:59;42.30;48.60
38788;DHT22;24536;45.488;12.238;2023-08-24T12:49:24;42.30;49.00
38788;DHT22;24536;45.488;12.238;2023-08-24T12:51:50;42.40;49.20
38788;DHT22;24536;45.488;12.238;2023-08-24T12:54:16;42.50;48.50
38788;DHT22;24536;45.488;12.238;2023-08-24T12:56:42;42.50;47.80
38788;DHT22;24536;45.488;12.238;2023-08-24T12:59:08;42.50;48.50
38788;DHT22;24536;45.488;12.238;2023-08-24T13:01:34;42.40;48.00
38788;DHT22;24536;45.488;12.238;2023-08-24T13:04:00;42.30;48.70
38788;DHT22;24536;45.488;12.238;2023-08-24T13:06:26;42.30;48.70
38788;DHT22;24536;45.488;12.238;2023-08-24T13:08:54;42.20;49.20
38788;DHT22;24536;45.488;12.238;2023-08-24T13:11:21;42.10;47.90
38788;DHT22;24536;45.488;12.238;2023-08-24T13:13:47;42.00;48.70
38788;DHT22;24536;45.488;12.238;2023-08-24T13:16:13;42.00;49.10
38788;DHT22;24536;45.488;12.238;2023-08-24T13:18:38;41.90;48.60
38788;DHT22;24536;45.488;12.238;2023-08-24T13:21:04;41.80;48.30
38788;DHT22;24536;45.488;12.238;2023-08-24T13:23:29;41.70;49.30
38788;DHT22;24536;45.488;12.238;2023-08-24T13:25:57;41.60;49.70
38788;DHT22;24536;45.488;12.238;2023-08-24T13:28:23;41.50;50.70
38788;DHT22;24536;45.488;12.238;2023-08-24T13:30:49;41.40;51.20
38788;DHT22;24536;45.488;12.238;2023-08-24T13:33:15;41.20;51.40
38788;DHT22;24536;45.488;12.238;2023-08-24T13:35:41;41.10;51.60
38788;DHT22;24536;45.488;12.238;2023-08-24T13:38:07;40.90;50.90
38788;DHT22;24536;45.488;12.238;2023-08-24T13:40:32;40.80;50.60
38788;DHT22;24536;45.488;12.238;2023-08-24T13:42:58;40.50;50.70
38788;DHT22;24536;45.488;12.238;2023-08-24T13:45:24;40.30;50.30
38788;DHT22;24536;45.488;12.238;2023-08-24T13:47:50;40.20;50.60
38788;DHT22;24536;45.488;12.238;2023-08-24T13:50:16;40.00;50.10
38788;DHT22;24536;45.488;12.238;2023-08-24T13:52:41;40.00;50.90
38788;DHT22;24536;45.488;12.238;2023-08-24T13:55:07;39.80;51.40
38788;DHT22;24536;45.488;12.238;2023-08-24T13:57:34;39.60;51.10
38788;DHT22;24536;45.488;12.238;2023-08-24T13:59:59;39.40;51.10
38788;DHT22;24536;45.488;12.238;2023-08-24T14:02:27;39.30;50.80
38788;DHT22;24536;45.488;12.238;2023-08-24T14:04:52;39.10;50.30
38788;DHT22;24536;45.488;12.238;2023-08-24T14:07:18;38.90;51.00
38788;DHT22;24536;45.488;12.238;2023-08-24T14:09:44;38.80;50.90
38788;DHT22;24536;45.488;12.238;2023-08-24T14:12:09;38.60;51.00
38788;DHT22;24536;45.488;12.238;2023-08-24T14:14:35;38.60;51.20
38788;DHT22;24536;45.488;12.238;2023-08-24T14:17:01;38.50;51.40
38788;DHT22;24536;45.488;12.238;2023-08-24T14:19:26;38.30;51.50
38788;DHT22;24536;45.488;12.238;2023-08-24T14:21:52;38.20;52.10
38788;DHT22;24536;45.488;12.238;2023-08-24T14:24:18;38.10;52.00
38788;DHT22;24536;45.488;12.238;2023-08-24T14:26:44;38.00;52.10
38788;DHT22;24536;45.488;12.238;2023-08-24T14:29:13;37.90;51.70
38788;DHT22;24536;45.488;12.238;2023-08-24T14:31:39;37.80;51.70
38788;DHT22;24536;45.488;12.238;2023-08-24T14:34:05;37.70;52.10
38788;DHT22;24536;45.488;12.238;2023-08-24T14:36:31;37.60;52.30
38788;DHT22;24536;45.488;12.238;2023-08-24T14:38:57;37.50;52.50
38788;DHT22;24536;45.488;12.238;2023-08-24T14:41:23;37.40;52.80
38788;DHT22;24536;45.488;12.238;2023-08-24T14:43:49;37.40;53.00
38788;DHT22;24536;45.488;12.238;2023-08-24T14:46:14;37.30;53.10
38788;DHT22;24536;45.488;12.238;2023-08-24T14:48:40;37.30;53.00
38788;DHT22;24536;45.488;12.238;2023-08-24T14:51:06;37.20;53.00
38788;DHT22;24536;45.488;12.238;2023-08-24T14:53:32;37.20;53.10
38788;DHT22;24536;45.488;12.238;2023-08-24T14:55:58;37.10;52.70
38788;DHT22;24536;45.488;12.238;2023-08-24T14:58:24;37.00;52.80
38788;DHT22;24536;45.488;12.238;2023-08-24T15:00:51;37.00;53.00
38788;DHT22;24536;45.488;12.238;2023-08-24T15:03:18;37.00;53.30
38788;DHT22;24536;45.488;12.238;2023-08-24T15:05:45;36.90;53.30
38788;DHT22;24536;45.488;12.238;2023-08-24T15:08:12;36.80;53.30
38788;DHT22;24536;45.488;12.238;2023-08-24T15:10:39;36.80;53.00
38788;DHT22;24536;45.488;12.238;2023-08-24T15:13:05;36.80;53.30
38788;DHT22;24536;45.488;12.238;2023-08-24T15:15:34;36.70;53.10
38788;DHT22;24536;45.488;12.238;2023-08-24T15:18:00;36.70;53.10
38788;DHT22;24536;45.488;12.238;2023-08-24T15:20:26;36.70;53.20
38788;DHT22;24536;45.488;12.238;2023-08-24T15:22:51;36.70;53.50
38788;DHT22;24536;45.488;12.238;2023-08-24T15:25:17;36.60;53.50
38788;DHT22;24536;45.488;12.238;2023-08-24T15:27:43;36.60;53.80
38788;DHT22;24536;45.488;12.238;2023-08-24T15:30:09;36.60;54.00
38788;DHT22;24536;45.488;12.238;2023-08-24T15:32:35;36.50;53.90
38788;DHT22;24536;45.488;12.238;2023-08-24T15:35:01;36.50;54.00
38788;DHT22;24536;45.488;12.238;2023-08-24T15:37:28;36.40;54.50